sensor_id;sensor_type;location;lat;lon;timestamp;temperature;humidity
61167;DHT22;47038;50.808;3.468;2022-08-06T00:00:58;15.30;86.60
61167;DHT22;47038;50.808;3.468;2022-08-06T00:03:24;15.20;86.80
61167;DHT22;47038;50.808;3.468;2022-08-06T00:05:51;15.20;87.00
61167;DHT22;47038;50.808;3.468;2022-08-06T00:08:16;15.30;87.00
61167;DHT22;47038;50.808;3.468;2022-08-06T00:10:42;15.20;87.10
61167;DHT22;47038;50.808;3.468;2022-08-06T00:13:08;15.30;86.80
61167;DHT22;47038;50.808;3.468;2022-08-06T00:15:33;15.30;86.50
61167;DHT22;47038;50.808;3.468;2022-08-06T00:18:00;15.30;86.50
61167;DHT22;47038;50.808;3.468;2022-08-06T00:20:26;15.30;86.50
61167;DHT22;47038;50.808;3.468;2022-08-06T00:22:52;15.30;86.00
61167;DHT22;47038;50.808;3.468;2022-08-06T00:25:17;15.50;85.40
61167;DHT22;47038;50.808;3.468;2022-08-06T00:27:43;15.50;84.90
61167;DHT22;47038;50.808;3.468;2022-08-06T00:30:09;15.50;84.10
61167;DHT22;47038;50.808;3.468;2022-08-06T00:32:35;15.70;83.00
61167;DHT22;47038;50.808;3.468;2022-08-06T00:35:00;15.60;82.90
61167;DHT22;47038;50.808;3.468;2022-08-06T00:37:26;15.50;83.20
61167;DHT22;47038;50.808;3.468;2022-08-06T00:39:57;15.50;83.50
61167;DHT22;47038;50.808;3.468;2022-08-06T00:42:23;15.40;83.80
61167;DHT22;47038;50.808;3.468;2022-08-06T00:44:48;15.60;83.50
61167;DHT22;47038;50.808;3.468;2022-08-06T00:47:14;15.60;83.20
61167;DHT22;47038;50.808;3.468;2022-08-06T00:49:39;15.50;83.80
61167;DHT22;47038;50.808;3.468;2022-08-06T00:52:05;15.50;83.70
61167;DHT22;47038;50.808;3.468;2022-08-06T00:54:31;15.60;83.40
61167;DHT22;47038;50.808;3.468;2022-08-06T00:56:56;15.70;82.90
61167;DHT22;47038;50.808;3.468;2022-08-06T00:59:22;15.70;82.70
61167;DHT22;47038;50.808;3.468;2022-08-06T01:01:47;15.70;83.00
61167;DHT22;47038;50.808;3.468;2022-08-06T01:04:13;15.50;84.10
61167;DHT22;47038;50.808;3.468;2022-08-06T01:06:39;15.30;85.10
61167;DHT22;47038;50.808;3.468;2022-08-06T01:09:04;15.10;85.70
61167;DHT22;47038;50.808;3.468;2022-08-06T01:11:31;15.00;86.40
61167;DHT22;47038;50.808;3.468;2022-08-06T01:13:57;15.00;86.90
61167;DHT22;47038;50.808;3.468;2022-08-06T01:16:31;15.00;87.20
61167;DHT22;47038;50.808;3.468;2022-08-06T01:29:20;15.00;87.30
61167;DHT22;47038;50.808;3.468;2022-08-06T01:34:23;15.20;87.30
61167;DHT22;47038;50.808;3.468;2022-08-06T01:37:36;15.10;87.60
61167;DHT22;47038;50.808;3.468;2022-08-06T01:39:36;15.00;87.70
61167;DHT22;47038;50.808;3.468;2022-08-06T01:42:03;15.00;87.70
61167;DHT22;47038;50.808;3.468;2022-08-06T01:44:31;14.90;88.00
61167;DHT22;47038;50.808;3.468;2022-08-06T01:47:00;14.90;88.30
61167;DHT22;47038;50.808;3.468;2022-08-06T01:49:27;14.90;88.30
61167;DHT22;47038;50.808;3.468;2022-08-06T01:51:54;14.90;88.60
61167;DHT22;47038;50.808;3.468;2022-08-06T01:54:21;14.70;89.30
61167;DHT22;47038;50.808;3.468;2022-08-06T01:56:50;14.50;90.10
61167;DHT22;47038;50.808;3.468;2022-08-06T01:59:17;14.40;90.50
61167;DHT22;47038;50.808;3.468;2022-08-06T02:01:46;14.50;90.50
61167;DHT22;47038;50.808;3.468;2022-08-06T02:04:12;14.50;90.60
61167;DHT22;47038;50.808;3.468;2022-08-06T02:06:40;14.50;90.70
61167;DHT22;47038;50.808;3.468;2022-08-06T02:09:08;14.40;91.00
61167;DHT22;47038;50.808;3.468;2022-08-06T02:11:36;14.50;90.80
61167;DHT22;47038;50.808;3.468;2022-08-06T02:14:03;14.40;90.90
61167;DHT22;47038;50.808;3.468;2022-08-06T02:16:33;14.40;91.10
61167;DHT22;47038;50.808;3.468;2022-08-06T02:19:00;14.50;91.00
61167;DHT22;47038;50.808;3.468;2022-08-06T02:21:26;14.40;90.90
61167;DHT22;47038;50.808;3.468;2022-08-06T02:23:53;14.30;91.10
61167;DHT22;47038;50.808;3.468;2022-08-06T02:26:19;14.20;91.50
61167;DHT22;47038;50.808;3.468;2022-08-06T02:28:46;14.20;91.40
61167;DHT22;47038;50.808;3.468;2022-08-06T02:31:13;14.20;91.50
61167;DHT22;47038;50.808;3.468;2022-08-06T02:33:38;14.20;91.50
61167;DHT22;47038;50.808;3.468;2022-08-06T02:38:41;14.30;91.40
61167;DHT22;47038;50.808;3.468;2022-08-06T02:41:17;14.20;91.40
61167;DHT22;47038;50.808;3.468;2022-08-06T02:43:47;14.20;91.60
61167;DHT22;47038;50.808;3.468;2022-08-06T02:46:18;14.20;91.70
61167;DHT22;47038;50.808;3.468;2022-08-06T02:48:51;14.10;91.70
61167;DHT22;47038;50.808;3.468;2022-08-06T02:51:23;14.10;91.90
61167;DHT22;47038;50.808;3.468;2022-08-06T02:53:56;14.20;91.70
61167;DHT22;47038;50.808;3.468;2022-08-06T02:56:23;14.10;91.80
61167;DHT22;47038;50.808;3.468;2022-08-06T02:58:51;14.00;92.00
61167;DHT22;47038;50.808;3.468;2022-08-06T03:01:25;14.00;92.10
61167;DHT22;47038;50.808;3.468;2022-08-06T03:03:52;13.90;92.40
61167;DHT22;47038;50.808;3.468;2022-08-06T03:06:20;13.90;92.80
61167;DHT22;47038;50.808;3.468;2022-08-06T03:08:46;13.90;92.60
61167;DHT22;47038;50.808;3.468;2022-08-06T03:11:13;13.90;92.60
61167;DHT22;47038;50.808;3.468;2022-08-06T03:13:38;13.80;92.70
61167;DHT22;47038;50.808;3.468;2022-08-06T03:16:06;13.80;92.70
61167;DHT22;47038;50.808;3.468;2022-08-06T03:18:32;13.80;92.80
61167;DHT22;47038;50.808;3.468;2022-08-06T03:20:58;13.80;92.80
61167;DHT22;47038;50.808;3.468;2022-08-06T03:23:26;13.70;93.10
61167;DHT22;47038;50.808;3.468;2022-08-06T03:25:54;13.60;93.20
61167;DHT22;47038;50.808;3.468;2022-08-06T03:28:20;13.50;93.40
61167;DHT22;47038;50.808;3.468;2022-08-06T03:30:46;13.50;93.70
61167;DHT22;47038;50.808;3.468;2022-08-06T03:33:14;13.60;93.50
61167;DHT22;47038;50.808;3.468;2022-08-06T03:35:40;13.70;93.50
61167;DHT22;47038;50.808;3.468;2022-08-06T03:38:07;13.70;93.40
61167;DHT22;47038;50.808;3.468;2022-08-06T03:40:33;13.80;93.50
61167;DHT22;47038;50.808;3.468;2022-08-06T03:42:59;13.60;93.30
61167;DHT22;47038;50.808;3.468;2022-08-06T03:45:25;13.70;93.30
61167;DHT22;47038;50.808;3.468;2022-08-06T03:47:52;13.80;93.20
61167;DHT22;47038;50.808;3.468;2022-08-06T03:50:22;13.90;93.20
61167;DHT22;47038;50.808;3.468;2022-08-06T03:52:54;14.00;93.20
61167;DHT22;47038;50.808;3.468;2022-08-06T03:55:22;14.00;92.70
61167;DHT22;47038;50.808;3.468;2022-08-06T03:57:49;13.80;92.80
61167;DHT22;47038;50.808;3.468;2022-08-06T04:00:17;13.80;93.10
61167;DHT22;47038;50.808;3.468;2022-08-06T04:02:46;13.70;93.20
61167;DHT22;47038;50.808;3.468;2022-08-06T04:05:14;13.70;93.50
61167;DHT22;47038;50.808;3.468;2022-08-06T04:07:41;13.70;93.80
61167;DHT22;47038;50.808;3.468;2022-08-06T04:10:06;13.70;93.80
61167;DHT22;47038;50.808;3.468;2022-08-06T04:12:32;13.80;93.80
61167;DHT22;47038;50.808;3.468;2022-08-06T04:14:59;13.80;93.80
61167;DHT22;47038;50.808;3.468;2022-08-06T04:17:24;13.80;93.80
61167;DHT22;47038;50.808;3.468;2022-08-06T04:19:51;13.80;93.80
61167;DHT22;47038;50.808;3.468;2022-08-06T04:22:18;13.70;94.00
61167;DHT22;47038;50.808;3.468;2022-08-06T04:24:43;13.70;93.60
61167;DHT22;47038;50.808;3.468;2022-08-06T04:27:09;13.60;93.70
61167;DHT22;47038;50.808;3.468;2022-08-06T04:29:35;13.60;93.70
61167;DHT22;47038;50.808;3.468;2022-08-06T04:32:02;13.70;93.80
61167;DHT22;47038;50.808;3.468;2022-08-06T04:34:28;13.70;93.50
61167;DHT22;47038;50.808;3.468;2022-08-06T04:36:55;13.60;93.90
61167;DHT22;47038;50.808;3.468;2022-08-06T04:39:21;13.70;93.90
61167;DHT22;47038;50.808;3.468;2022-08-06T04:41:48;13.60;93.90
61167;DHT22;47038;50.808;3.468;2022-08-06T04:44:14;13.50;94.30
61167;DHT22;47038;50.808;3.468;2022-08-06T04:46:39;13.50;94.30
61167;DHT22;47038;50.808;3.468;2022-08-06T04:49:05;13.50;94.50
61167;DHT22;47038;50.808;3.468;2022-08-06T04:51:31;13.70;94.20
61167;DHT22;47038;50.808;3.468;2022-08-06T04:53:56;13.60;94.20
61167;DHT22;47038;50.808;3.468;2022-08-06T04:56:22;13.70;94.40
61167;DHT22;47038;50.808;3.468;2022-08-06T04:58:47;13.80;94.30
61167;DHT22;47038;50.808;3.468;2022-08-06T05:01:13;13.80;94.20
61167;DHT22;47038;50.808;3.468;2022-08-06T05:03:39;14.00;93.90
61167;DHT22;47038;50.808;3.468;2022-08-06T05:06:09;14.10;93.70
61167;DHT22;47038;50.808;3.468;2022-08-06T05:08:38;14.00;93.60
61167;DHT22;47038;50.808;3.468;2022-08-06T05:11:12;14.00;93.70
61167;DHT22;47038;50.808;3.468;2022-08-06T05:13:39;13.90;93.90
61167;DHT22;47038;50.808;3.468;2022-08-06T05:16:08;14.20;93.50
61167;DHT22;47038;50.808;3.468;2022-08-06T05:18:46;14.20;93.50
61167;DHT22;47038;50.808;3.468;2022-08-06T05:21:14;14.10;93.80
61167;DHT22;47038;50.808;3.468;2022-08-06T05:23:43;14.10;94.00
61167;DHT22;47038;50.808;3.468;2022-08-06T05:26:10;14.10;94.20
61167;DHT22;47038;50.808;3.468;2022-08-06T05:28:38;14.20;94.20
61167;DHT22;47038;50.808;3.468;2022-08-06T05:31:04;14.30;94.00
61167;DHT22;47038;50.808;3.468;2022-08-06T05:33:32;14.40;94.00
61167;DHT22;47038;50.808;3.468;2022-08-06T05:35:58;14.70;93.80
61167;DHT22;47038;50.808;3.468;2022-08-06T05:38:24;14.90;93.60
61167;DHT22;47038;50.808;3.468;2022-08-06T05:40:52;15.20;93.10
61167;DHT22;47038;50.808;3.468;2022-08-06T05:43:17;15.30;92.80
61167;DHT22;47038;50.808;3.468;2022-08-06T05:45:43;15.50;92.80
61167;DHT22;47038;50.808;3.468;2022-08-06T05:48:09;15.80;91.70
61167;DHT22;47038;50.808;3.468;2022-08-06T05:50:37;15.90;91.50
61167;DHT22;47038;50.808;3.468;2022-08-06T05:53:08;15.30;92.30
61167;DHT22;47038;50.808;3.468;2022-08-06T05:55:37;15.30;92.70
61167;DHT22;47038;50.808;3.468;2022-08-06T05:58:15;15.40;92.10
61167;DHT22;47038;50.808;3.468;2022-08-06T06:00:42;15.40;91.80
61167;DHT22;47038;50.808;3.468;2022-08-06T06:03:11;15.50;91.70
61167;DHT22;47038;50.808;3.468;2022-08-06T06:05:37;15.50;92.00
61167;DHT22;47038;50.808;3.468;2022-08-06T06:08:03;15.70;91.90
61167;DHT22;47038;50.808;3.468;2022-08-06T06:10:31;15.70;91.80
61167;DHT22;47038;50.808;3.468;2022-08-06T06:12:59;16.00;91.70
61167;DHT22;47038;50.808;3.468;2022-08-06T06:15:25;16.10;91.30
61167;DHT22;47038;50.808;3.468;2022-08-06T06:20:29;16.50;91.70
61167;DHT22;47038;50.808;3.468;2022-08-06T06:22:59;16.60;91.60
61167;DHT22;47038;50.808;3.468;2022-08-06T06:25:28;16.80;91.10
61167;DHT22;47038;50.808;3.468;2022-08-06T06:27:59;16.90;90.70
61167;DHT22;47038;50.808;3.468;2022-08-06T06:30:33;17.10;90.50
61167;DHT22;47038;50.808;3.468;2022-08-06T06:35:35;17.40;90.20
61167;DHT22;47038;50.808;3.468;2022-08-06T06:38:17;17.60;88.40
61167;DHT22;47038;50.808;3.468;2022-08-06T06:40:56;17.80;87.20
61167;DHT22;47038;50.808;3.468;2022-08-06T06:43:25;17.80;87.80
61167;DHT22;47038;50.808;3.468;2022-08-06T06:48:32;18.00;87.60
61167;DHT22;47038;50.808;3.468;2022-08-06T06:51:00;18.10;88.20
61167;DHT22;47038;50.808;3.468;2022-08-06T06:53:28;18.10;88.10
61167;DHT22;47038;50.808;3.468;2022-08-06T06:55:54;18.20;88.60
61167;DHT22;47038;50.808;3.468;2022-08-06T06:58:39;18.40;88.30
61167;DHT22;47038;50.808;3.468;2022-08-06T07:01:07;18.30;87.90
61167;DHT22;47038;50.808;3.468;2022-08-06T07:03:34;18.40;87.70
61167;DHT22;47038;50.808;3.468;2022-08-06T07:06:02;18.50;87.80
61167;DHT22;47038;50.808;3.468;2022-08-06T07:08:30;18.60;87.30
61167;DHT22;47038;50.808;3.468;2022-08-06T07:10:57;18.60;87.40
61167;DHT22;47038;50.808;3.468;2022-08-06T07:13:24;18.80;86.40
61167;DHT22;47038;50.808;3.468;2022-08-06T07:15:50;18.90;85.50
61167;DHT22;47038;50.808;3.468;2022-08-06T07:18:16;18.90;85.00
61167;DHT22;47038;50.808;3.468;2022-08-06T07:20:42;19.00;84.50
61167;DHT22;47038;50.808;3.468;2022-08-06T07:23:09;19.00;84.10
61167;DHT22;47038;50.808;3.468;2022-08-06T07:25:42;19.10;84.30
61167;DHT22;47038;50.808;3.468;2022-08-06T07:28:09;19.30;83.60
61167;DHT22;47038;50.808;3.468;2022-08-06T07:30:35;19.30;83.60
61167;DHT22;47038;50.808;3.468;2022-08-06T07:33:01;19.40;83.10
61167;DHT22;47038;50.808;3.468;2022-08-06T07:35:27;19.60;82.40
61167;DHT22;47038;50.808;3.468;2022-08-06T07:37:53;19.50;82.30
61167;DHT22;47038;50.808;3.468;2022-08-06T07:40:23;19.40;82.20
61167;DHT22;47038;50.808;3.468;2022-08-06T07:42:50;19.40;82.40
61167;DHT22;47038;50.808;3.468;2022-08-06T07:45:18;19.40;82.20
61167;DHT22;47038;50.808;3.468;2022-08-06T07:47:46;19.50;82.10
61167;DHT22;47038;50.808;3.468;2022-08-06T07:50:13;19.70;81.80
61167;DHT22;47038;50.808;3.468;2022-08-06T07:52:39;19.70;81.80
61167;DHT22;47038;50.808;3.468;2022-08-06T07:55:06;19.80;81.00
61167;DHT22;47038;50.808;3.468;2022-08-06T07:57:32;19.80;80.30
61167;DHT22;47038;50.808;3.468;2022-08-06T07:59:58;19.90;80.60
61167;DHT22;47038;50.808;3.468;2022-08-06T08:02:24;20.10;80.30
61167;DHT22;47038;50.808;3.468;2022-08-06T08:04:50;20.30;79.70
61167;DHT22;47038;50.808;3.468;2022-08-06T08:07:34;20.30;79.10
61167;DHT22;47038;50.808;3.468;2022-08-06T08:10:00;20.40;78.40
61167;DHT22;47038;50.808;3.468;2022-08-06T08:12:26;20.60;78.70
61167;DHT22;47038;50.808;3.468;2022-08-06T08:14:51;20.90;77.20
61167;DHT22;47038;50.808;3.468;2022-08-06T08:17:17;21.00;77.50
61167;DHT22;47038;50.808;3.468;2022-08-06T08:19:43;20.90;76.90
61167;DHT22;47038;50.808;3.468;2022-08-06T08:22:10;21.10;76.90
61167;DHT22;47038;50.808;3.468;2022-08-06T08:24:37;21.10;76.90
61167;DHT22;47038;50.808;3.468;2022-08-06T08:27:03;21.20;76.30
61167;DHT22;47038;50.808;3.468;2022-08-06T08:29:32;20.90;76.80
61167;DHT22;47038;50.808;3.468;2022-08-06T08:31:58;20.90;76.90
61167;DHT22;47038;50.808;3.468;2022-08-06T08:34:23;21.00;77.00
61167;DHT22;47038;50.808;3.468;2022-08-06T08:36:49;21.00;77.10
61167;DHT22;47038;50.808;3.468;2022-08-06T08:39:15;21.00;76.80
61167;DHT22;47038;50.808;3.468;2022-08-06T08:41:51;21.10;76.10
61167;DHT22;47038;50.808;3.468;2022-08-06T08:44:20;21.20;75.50
61167;DHT22;47038;50.808;3.468;2022-08-06T08:46:46;21.10;76.00
61167;DHT22;47038;50.808;3.468;2022-08-06T08:49:25;21.30;75.80
61167;DHT22;47038;50.808;3.468;2022-08-06T08:51:52;21.60;75.10
61167;DHT22;47038;50.808;3.468;2022-08-06T08:54:21;21.90;75.00
61167;DHT22;47038;50.808;3.468;2022-08-06T08:56:47;21.70;73.90
61167;DHT22;47038;50.808;3.468;2022-08-06T08:59:13;21.50;74.40
61167;DHT22;47038;50.808;3.468;2022-08-06T09:01:39;21.60;74.30
61167;DHT22;47038;50.808;3.468;2022-08-06T09:04:05;21.80;73.60
61167;DHT22;47038;50.808;3.468;2022-08-06T09:06:31;22.10;73.40
61167;DHT22;47038;50.808;3.468;2022-08-06T09:09:02;22.30;72.80
61167;DHT22;47038;50.808;3.468;2022-08-06T09:11:31;22.10;72.10
61167;DHT22;47038;50.808;3.468;2022-08-06T09:14:01;21.90;72.30
61167;DHT22;47038;50.808;3.468;2022-08-06T09:16:28;22.10;72.20
61167;DHT22;47038;50.808;3.468;2022-08-06T09:18:53;21.70;73.50
61167;DHT22;47038;50.808;3.468;2022-08-06T09:21:19;21.70;72.90
61167;DHT22;47038;50.808;3.468;2022-08-06T09:23:46;22.00;72.00
61167;DHT22;47038;50.808;3.468;2022-08-06T09:26:11;21.80;72.40
61167;DHT22;47038;50.808;3.468;2022-08-06T09:28:39;21.70;72.90
61167;DHT22;47038;50.808;3.468;2022-08-06T09:31:09;21.80;72.20
61167;DHT22;47038;50.808;3.468;2022-08-06T09:33:36;21.90;72.00
61167;DHT22;47038;50.808;3.468;2022-08-06T09:36:11;22.20;71.40
61167;DHT22;47038;50.808;3.468;2022-08-06T09:38:51;22.20;71.10
61167;DHT22;47038;50.808;3.468;2022-08-06T09:41:17;22.60;70.70
61167;DHT22;47038;50.808;3.468;2022-08-06T09:43:44;23.10;68.60
61167;DHT22;47038;50.808;3.468;2022-08-06T09:46:10;23.30;68.10
61167;DHT22;47038;50.808;3.468;2022-08-06T09:48:35;23.10;68.50
61167;DHT22;47038;50.808;3.468;2022-08-06T09:51:01;22.60;69.60
61167;DHT22;47038;50.808;3.468;2022-08-06T09:53:27;23.00;69.20
61167;DHT22;47038;50.808;3.468;2022-08-06T09:55:53;23.50;68.60
61167;DHT22;47038;50.808;3.468;2022-08-06T09:58:32;23.70;67.70
61167;DHT22;47038;50.808;3.468;2022-08-06T10:01:12;23.50;66.80
61167;DHT22;47038;50.808;3.468;2022-08-06T10:03:39;23.70;67.00
61167;DHT22;47038;50.808;3.468;2022-08-06T10:06:06;23.50;66.80
61167;DHT22;47038;50.808;3.468;2022-08-06T10:08:31;23.60;67.30
61167;DHT22;47038;50.808;3.468;2022-08-06T10:10:57;24.10;66.40
61167;DHT22;47038;50.808;3.468;2022-08-06T10:13:28;24.40;65.40
61167;DHT22;47038;50.808;3.468;2022-08-06T10:15:55;24.10;64.40
61167;DHT22;47038;50.808;3.468;2022-08-06T10:21:06;23.90;63.60
61167;DHT22;47038;50.808;3.468;2022-08-06T10:23:33;23.50;64.60
61167;DHT22;47038;50.808;3.468;2022-08-06T10:26:01;22.90;65.90
61167;DHT22;47038;50.808;3.468;2022-08-06T10:28:27;23.20;65.50
61167;DHT22;47038;50.808;3.468;2022-08-06T10:30:53;23.60;65.50
61167;DHT22;47038;50.808;3.468;2022-08-06T10:33:19;23.80;65.70
61167;DHT22;47038;50.808;3.468;2022-08-06T10:35:45;23.90;63.10
61167;DHT22;47038;50.808;3.468;2022-08-06T10:38:12;23.60;63.60
61167;DHT22;47038;50.808;3.468;2022-08-06T10:40:39;23.40;64.50
61167;DHT22;47038;50.808;3.468;2022-08-06T10:43:08;23.50;63.80
61167;DHT22;47038;50.808;3.468;2022-08-06T10:45:33;23.50;63.60
61167;DHT22;47038;50.808;3.468;2022-08-06T10:48:00;23.20;65.00
61167;DHT22;47038;50.808;3.468;2022-08-06T10:50:25;23.40;63.80
61167;DHT22;47038;50.808;3.468;2022-08-06T10:52:51;23.20;64.10
61167;DHT22;47038;50.808;3.468;2022-08-06T10:55:17;23.50;63.10
61167;DHT22;47038;50.808;3.468;2022-08-06T10:57:43;23.50;63.30
61167;DHT22;47038;50.808;3.468;2022-08-06T11:00:10;23.90;62.90
61167;DHT22;47038;50.808;3.468;2022-08-06T11:05:15;23.70;61.60
61167;DHT22;47038;50.808;3.468;2022-08-06T11:10:14;23.80;61.80
61167;DHT22;47038;50.808;3.468;2022-08-06T11:12:57;24.30;61.70
61167;DHT22;47038;50.808;3.468;2022-08-06T11:15:24;24.40;60.20
61167;DHT22;47038;50.808;3.468;2022-08-06T11:17:51;24.60;60.70
61167;DHT22;47038;50.808;3.468;2022-08-06T11:23:02;24.40;60.00
61167;DHT22;47038;50.808;3.468;2022-08-06T11:28:03;24.10;61.70
61167;DHT22;47038;50.808;3.468;2022-08-06T11:30:42;24.30;61.50
61167;DHT22;47038;50.808;3.468;2022-08-06T11:33:09;24.40;60.80
61167;DHT22;47038;50.808;3.468;2022-08-06T11:38:01;24.50;60.70
61167;DHT22;47038;50.808;3.468;2022-08-06T11:40:28;24.30;61.10
61167;DHT22;47038;50.808;3.468;2022-08-06T11:43:23;24.10;61.60
61167;DHT22;47038;50.808;3.468;2022-08-06T11:46:18;24.10;62.10
61167;DHT22;47038;50.808;3.468;2022-08-06T11:54:13;24.60;61.30
61167;DHT22;47038;50.808;3.468;2022-08-06T11:59:24;24.70;60.90
61167;DHT22;47038;50.808;3.468;2022-08-06T12:01:51;24.10;61.40
61167;DHT22;47038;50.808;3.468;2022-08-06T12:07:23;24.60;60.40
61167;DHT22;47038;50.808;3.468;2022-08-06T12:14:53;24.60;60.30
61167;DHT22;47038;50.808;3.468;2022-08-06T12:17:19;25.20;58.80
61167;DHT22;47038;50.808;3.468;2022-08-06T12:19:45;25.60;57.90
61167;DHT22;47038;50.808;3.468;2022-08-06T12:22:12;25.30;58.50
61167;DHT22;47038;50.808;3.468;2022-08-06T12:24:37;25.40;57.90
61167;DHT22;47038;50.808;3.468;2022-08-06T12:27:06;25.70;58.40
61167;DHT22;47038;50.808;3.468;2022-08-06T12:29:32;25.00;58.40
61167;DHT22;47038;50.808;3.468;2022-08-06T12:31:58;24.90;58.80
61167;DHT22;47038;50.808;3.468;2022-08-06T12:34:24;24.40;59.80
61167;DHT22;47038;50.808;3.468;2022-08-06T12:36:51;24.20;59.60
61167;DHT22;47038;50.808;3.468;2022-08-06T12:39:16;24.10;59.90
61167;DHT22;47038;50.808;3.468;2022-08-06T12:41:42;24.40;57.80
61167;DHT22;47038;50.808;3.468;2022-08-06T12:44:08;24.30;58.10
61167;DHT22;47038;50.808;3.468;2022-08-06T12:46:34;24.40;59.30
61167;DHT22;47038;50.808;3.468;2022-08-06T12:49:00;24.50;58.90
61167;DHT22;47038;50.808;3.468;2022-08-06T12:51:26;24.90;58.20
61167;DHT22;47038;50.808;3.468;2022-08-06T12:53:52;25.20;56.60
61167;DHT22;47038;50.808;3.468;2022-08-06T12:56:19;25.20;55.40
61167;DHT22;47038;50.808;3.468;2022-08-06T12:58:45;25.40;56.10
61167;DHT22;47038;50.808;3.468;2022-08-06T13:01:16;25.60;55.60
61167;DHT22;47038;50.808;3.468;2022-08-06T13:03:44;25.60;56.10
61167;DHT22;47038;50.808;3.468;2022-08-06T13:06:10;24.90;56.60
61167;DHT22;47038;50.808;3.468;2022-08-06T13:08:36;24.20;57.40
61167;DHT22;47038;50.808;3.468;2022-08-06T13:11:03;24.10;58.00
61167;DHT22;47038;50.808;3.468;2022-08-06T13:13:38;24.30;57.30
61167;DHT22;47038;50.808;3.468;2022-08-06T13:16:06;24.20;57.20
61167;DHT22;47038;50.808;3.468;2022-08-06T13:18:32;23.80;57.90
61167;DHT22;47038;50.808;3.468;2022-08-06T13:20:58;23.70;58.70
61167;DHT22;47038;50.808;3.468;2022-08-06T13:23:44;23.80;59.10
61167;DHT22;47038;50.808;3.468;2022-08-06T13:26:11;23.90;59.40
61167;DHT22;47038;50.808;3.468;2022-08-06T13:28:37;23.90;58.90
61167;DHT22;47038;50.808;3.468;2022-08-06T13:31:16;24.20;58.20
61167;DHT22;47038;50.808;3.468;2022-08-06T13:33:41;24.70;57.90
61167;DHT22;47038;50.808;3.468;2022-08-06T13:36:07;25.00;57.40
61167;DHT22;47038;50.808;3.468;2022-08-06T13:38:34;24.60;57.30
61167;DHT22;47038;50.808;3.468;2022-08-06T13:41:00;24.80;57.90
61167;DHT22;47038;50.808;3.468;2022-08-06T13:43:36;24.80;57.80
61167;DHT22;47038;50.808;3.468;2022-08-06T13:48:31;24.40;57.20
61167;DHT22;47038;50.808;3.468;2022-08-06T13:50:56;24.70;57.20
61167;DHT22;47038;50.808;3.468;2022-08-06T13:53:22;24.50;57.30
61167;DHT22;47038;50.808;3.468;2022-08-06T13:55:47;24.50;56.70
61167;DHT22;47038;50.808;3.468;2022-08-06T13:58:13;24.40;57.30
61167;DHT22;47038;50.808;3.468;2022-08-06T14:00:40;24.50;57.10
61167;DHT22;47038;50.808;3.468;2022-08-06T14:03:07;24.60;57.20
61167;DHT22;47038;50.808;3.468;2022-08-06T14:05:33;24.90;56.60
61167;DHT22;47038;50.808;3.468;2022-08-06T14:07:58;25.30;56.50
61167;DHT22;47038;50.808;3.468;2022-08-06T14:10:25;25.80;56.00
61167;DHT22;47038;50.808;3.468;2022-08-06T14:12:50;25.60;56.00
61167;DHT22;47038;50.808;3.468;2022-08-06T14:15:36;25.50;55.70
61167;DHT22;47038;50.808;3.468;2022-08-06T14:18:02;25.50;55.30
61167;DHT22;47038;50.808;3.468;2022-08-06T14:20:27;25.80;55.20
61167;DHT22;47038;50.808;3.468;2022-08-06T14:22:54;25.80;55.00
61167;DHT22;47038;50.808;3.468;2022-08-06T14:25:20;25.30;56.20
61167;DHT22;47038;50.808;3.468;2022-08-06T14:27:48;24.90;57.40
61167;DHT22;47038;50.808;3.468;2022-08-06T14:30:14;24.50;58.30
61167;DHT22;47038;50.808;3.468;2022-08-06T14:32:41;24.40;57.90
61167;DHT22;47038;50.808;3.468;2022-08-06T14:35:09;24.50;57.40
61167;DHT22;47038;50.808;3.468;2022-08-06T14:37:34;24.90;57.80
61167;DHT22;47038;50.808;3.468;2022-08-06T14:40:00;25.40;57.50
61167;DHT22;47038;50.808;3.468;2022-08-06T14:42:26;25.80;55.90
61167;DHT22;47038;50.808;3.468;2022-08-06T14:45:10;25.70;55.10
61167;DHT22;47038;50.808;3.468;2022-08-06T14:47:36;25.40;55.10
61167;DHT22;47038;50.808;3.468;2022-08-06T14:50:02;25.10;55.70
61167;DHT22;47038;50.808;3.468;2022-08-06T14:52:28;25.10;56.00
61167;DHT22;47038;50.808;3.468;2022-08-06T14:54:53;25.20;55.70
61167;DHT22;47038;50.808;3.468;2022-08-06T14:57:19;25.70;55.80
61167;DHT22;47038;50.808;3.468;2022-08-06T14:59:45;25.50;54.90
61167;DHT22;47038;50.808;3.468;2022-08-06T15:02:11;24.90;56.50
61167;DHT22;47038;50.808;3.468;2022-08-06T15:04:37;25.00;54.90
61167;DHT22;47038;50.808;3.468;2022-08-06T15:07:03;24.50;56.30
61167;DHT22;47038;50.808;3.468;2022-08-06T15:09:28;25.00;56.50
61167;DHT22;47038;50.808;3.468;2022-08-06T15:11:54;24.90;56.20
61167;DHT22;47038;50.808;3.468;2022-08-06T15:14:20;24.90;56.20
61167;DHT22;47038;50.808;3.468;2022-08-06T15:16:46;25.00;56.00
61167;DHT22;47038;50.808;3.468;2022-08-06T15:19:12;24.90;56.50
61167;DHT22;47038;50.808;3.468;2022-08-06T15:21:39;25.10;56.50
61167;DHT22;47038;50.808;3.468;2022-08-06T15:24:04;25.10;56.90
61167;DHT22;47038;50.808;3.468;2022-08-06T15:26:30;25.20;56.10
61167;DHT22;47038;50.808;3.468;2022-08-06T15:28:56;25.00;56.30
61167;DHT22;47038;50.808;3.468;2022-08-06T15:31:21;25.10;56.40
61167;DHT22;47038;50.808;3.468;2022-08-06T15:33:47;25.00;57.00
61167;DHT22;47038;50.808;3.468;2022-08-06T15:36:12;24.80;56.90
61167;DHT22;47038;50.808;3.468;2022-08-06T15:38:38;24.30;57.40
61167;DHT22;47038;50.808;3.468;2022-08-06T15:41:04;24.70;57.10
61167;DHT22;47038;50.808;3.468;2022-08-06T15:43:30;24.80;57.20
61167;DHT22;47038;50.808;3.468;2022-08-06T15:45:56;24.50;58.20
61167;DHT22;47038;50.808;3.468;2022-08-06T15:48:25;24.80;56.00
61167;DHT22;47038;50.808;3.468;2022-08-06T15:50:51;24.90;56.40
61167;DHT22;47038;50.808;3.468;2022-08-06T15:53:17;25.00;56.00
61167;DHT22;47038;50.808;3.468;2022-08-06T15:55:43;24.70;55.90
61167;DHT22;47038;50.808;3.468;2022-08-06T15:58:08;24.50;55.30
61167;DHT22;47038;50.808;3.468;2022-08-06T16:00:35;24.50;55.20
61167;DHT22;47038;50.808;3.468;2022-08-06T16:03:01;24.70;55.30
61167;DHT22;47038;50.808;3.468;2022-08-06T16:05:26;24.90;55.80
61167;DHT22;47038;50.808;3.468;2022-08-06T16:07:52;24.80;56.00
61167;DHT22;47038;50.808;3.468;2022-08-06T16:10:17;24.80;56.10
61167;DHT22;47038;50.808;3.468;2022-08-06T16:12:44;25.00;55.80
61167;DHT22;47038;50.808;3.468;2022-08-06T16:15:09;25.00;55.30
61167;DHT22;47038;50.808;3.468;2022-08-06T16:17:35;24.80;55.50
61167;DHT22;47038;50.808;3.468;2022-08-06T16:20:01;24.80;55.80
61167;DHT22;47038;50.808;3.468;2022-08-06T16:22:27;24.80;56.20
61167;DHT22;47038;50.808;3.468;2022-08-06T16:24:53;24.50;56.70
61167;DHT22;47038;50.808;3.468;2022-08-06T16:27:18;24.60;56.70
61167;DHT22;47038;50.808;3.468;2022-08-06T16:29:44;24.30;57.30